LFKZ weather

CLOSED Aérodrome de St Claude Pratz
Franche-Comté, France

Public forecast

Using degrees Celsius for public forecast. Weather courtesy of forecast.io.

METAR (pilot weather report)

Closest report is Geneva Cointrin International Airport, 16.6 nm (30.8 km) ESE. Retrieved 2019/07/22 09:20 UTC (20 minutes ago):

LSGG 220920Z AUTO 06006KT 010V100 CAVOK 27/15 Q1024 NOSIG

TAF (pilot weather forecast)

Closest forecast is Geneva Cointrin International Airport, 16.6 nm (30.8 km) ESE. Retrieved 2019/07/22 09:36 UTC (4 minutes ago):

TAF LSGG 220825Z 2209/2315 05007KT 9999 FEW070 SCT300 TX32/2215Z TN18/2304Z TX34/2315Z BECMG 2217/2219 VRB02KT CAVOK